createdAt,value
2023-01-17T00:02:27.159Z,7.55
2023-01-17T00:05:13.176Z,7.62
2023-01-17T00:07:59.717Z,7.60
2023-01-17T00:10:29.891Z,7.65
2023-01-17T00:12:59.792Z,7.56
2023-01-17T00:15:29.315Z,7.52
2023-01-17T00:17:59.691Z,7.56
2023-01-17T00:20:48.963Z,7.60
2023-01-17T00:23:45.103Z,7.59
2023-01-17T00:26:19.852Z,7.62
2023-01-17T00:28:47.567Z,7.53
2023-01-17T00:31:16.489Z,7.57
2023-01-17T00:33:44.307Z,7.63
2023-01-17T00:36:11.950Z,7.59
2023-01-17T00:38:41.490Z,7.57
2023-01-17T00:41:11.664Z,7.60
2023-01-17T00:43:58.729Z,7.62
2023-01-17T00:46:48.184Z,7.65
2023-01-17T00:49:34.104Z,7.63
2023-01-17T00:52:19.878Z,7.69
2023-01-17T00:55:06.344Z,7.68
2023-01-17T00:57:54.530Z,7.69
2023-01-17T01:00:41.154Z,7.70
2023-01-17T01:03:28.925Z,7.70
2023-01-17T01:06:14.901Z,7.68
2023-01-17T01:09:00.676Z,7.64
2023-01-17T01:11:47.211Z,7.64
2023-01-17T01:14:33.407Z,7.65
2023-01-17T01:17:19.670Z,7.65
2023-01-17T01:20:05.607Z,7.64
2023-01-17T01:22:51.507Z,7.60
2023-01-17T01:25:37.175Z,7.61
2023-01-17T01:28:30.022Z,7.64
2023-01-17T01:31:21.858Z,7.62
2023-01-17T01:33:50.913Z,7.68
2023-01-17T01:36:18.026Z,7.70
2023-01-17T01:38:46.105Z,7.68
2023-01-17T01:41:13.180Z,7.66
2023-01-17T01:43:57.681Z,7.69
2023-01-17T01:46:30.402Z,7.70
2023-01-17T01:49:02.759Z,7.74
2023-01-17T01:51:38.586Z,7.70
2023-01-17T01:54:30.507Z,7.73
2023-01-17T01:57:01.528Z,7.71
2023-01-17T01:59:31.157Z,7.66
2023-01-17T02:02:00.802Z,7.72
2023-01-17T02:04:28.877Z,7.68
2023-01-17T02:07:03.152Z,7.69
2023-01-17T02:09:30.957Z,7.67
2023-01-17T02:11:58.344Z,7.71
2023-01-17T02:14:25.903Z,7.74
2023-01-17T02:17:04.007Z,7.77
2023-01-17T02:19:56.233Z,7.75
2023-01-17T02:22:53.688Z,7.75
2023-01-17T02:25:24.412Z,7.77
2023-01-17T02:28:21.545Z,7.79
2023-01-17T02:30:54.823Z,7.79
2023-01-17T02:33:37.196Z,7.76
2023-01-17T02:36:30.615Z,7.77
2023-01-17T02:39:19.824Z,7.75
2023-01-17T02:41:52.546Z,7.69
2023-01-17T02:44:21.074Z,7.68
2023-01-17T02:46:49.633Z,7.72
2023-01-17T02:49:20.544Z,7.71
2023-01-17T02:51:59.327Z,7.74
2023-01-17T02:55:23.676Z,7.76
2023-01-17T02:58:09.234Z,7.75
2023-01-17T03:00:49.052Z,7.69
2023-01-17T03:03:33.088Z,7.77
2023-01-17T03:06:11.890Z,7.75
2023-01-17T03:08:43.462Z,7.78
2023-01-17T03:11:12.682Z,7.78
2023-01-17T03:13:40.119Z,7.70
2023-01-17T03:16:21.401Z,7.75
2023-01-17T03:18:49.424Z,7.75
2023-01-17T03:21:19.715Z,7.72
2023-01-17T03:23:47.442Z,7.77
2023-01-17T03:26:14.924Z,7.75
2023-01-17T03:28:43.612Z,7.77
2023-01-17T03:31:14.933Z,7.77
2023-01-17T03:33:42.398Z,7.74
2023-01-17T03:36:10.027Z,7.75
2023-01-17T03:38:37.904Z,7.74
2023-01-17T03:41:06.829Z,7.76
2023-01-17T03:43:34.252Z,7.76
2023-01-17T03:46:18.097Z,7.76
2023-01-17T03:48:45.544Z,7.79
2023-01-17T03:51:13.143Z,7.72
2023-01-17T03:53:40.520Z,7.71
2023-01-17T03:56:07.898Z,7.70
2023-01-17T03:58:35.381Z,7.77
2023-01-17T04:01:02.661Z,7.77
2023-01-17T04:03:32.468Z,7.77
2023-01-17T04:06:01.602Z,7.76
2023-01-17T04:08:30.699Z,7.74
2023-01-17T04:10:58.105Z,7.73
2023-01-17T04:13:25.493Z,7.76
2023-01-17T04:15:53.221Z,7.81
2023-01-17T04:18:23.372Z,7.74
2023-01-17T04:20:51.653Z,7.76
2023-01-17T04:23:19.131Z,7.80
2023-01-17T04:25:49.037Z,7.75
2023-01-17T04:28:16.858Z,7.81
2023-01-17T04:30:44.051Z,7.74
2023-01-17T04:33:11.649Z,7.77
2023-01-17T04:35:41.870Z,7.73
2023-01-17T04:38:10.375Z,7.77
2023-01-17T04:40:37.513Z,7.77
2023-01-17T04:43:07.172Z,7.79
2023-01-17T04:45:34.487Z,7.77
2023-01-17T04:48:06.778Z,7.79
2023-01-17T04:50:36.526Z,7.75
2023-01-17T04:53:04.117Z,7.77
2023-01-17T04:55:32.396Z,7.79
2023-01-17T04:58:15.979Z,7.84
2023-01-17T05:00:44.188Z,7.80
2023-01-17T05:03:12.942Z,7.80
2023-01-17T05:08:22.909Z,7.70
2023-01-17T05:10:50.798Z,7.68
2023-01-17T05:13:18.856Z,7.65
2023-01-17T05:15:47.312Z,7.62
2023-01-17T05:18:17.086Z,7.63
2023-01-17T05:20:46.482Z,7.59
2023-01-17T05:23:19.477Z,7.53
2023-01-17T05:25:47.845Z,7.60
2023-01-17T05:28:51.311Z,7.57
2023-01-17T05:31:18.859Z,7.56
2023-01-17T05:33:48.005Z,7.52
2023-01-17T05:36:15.898Z,7.57
2023-01-17T05:38:44.900Z,7.52
2023-01-17T05:41:29.639Z,7.45
2023-01-17T05:44:12.315Z,7.49
2023-01-17T05:46:39.928Z,7.49
2023-01-17T05:49:08.493Z,7.41
2023-01-17T05:51:37.979Z,7.41
2023-01-17T05:54:06.232Z,7.40
2023-01-17T05:56:35.684Z,7.41
2023-01-17T05:59:02.820Z,7.33
2023-01-17T06:01:30.269Z,7.32
2023-01-17T06:06:38.843Z,7.29
2023-01-17T06:09:10.822Z,7.30
2023-01-17T06:11:40.104Z,7.29
2023-01-17T06:14:08.345Z,7.28
2023-01-17T06:16:38.034Z,7.29
2023-01-17T06:19:14.529Z,7.27
2023-01-17T06:21:42.445Z,7.23
2023-01-17T06:24:11.520Z,7.15
2023-01-17T06:26:40.230Z,7.17
2023-01-17T06:29:07.864Z,7.08
2023-01-17T06:31:36.489Z,7.07
2023-01-17T06:34:06.307Z,7.08
2023-01-17T06:36:55.799Z,7.05
2023-01-17T06:39:28.255Z,7.00
2023-01-17T06:41:55.295Z,7.00
2023-01-17T06:44:23.391Z,7.03
2023-01-17T06:46:56.619Z,7.07
2023-01-17T06:49:25.145Z,7.10
2023-01-17T06:51:52.330Z,7.09
2023-01-17T06:54:20.088Z,7.13
2023-01-17T07:08:30.621Z,7.41
2023-01-17T07:11:12.034Z,7.47
2023-01-17T07:13:44.849Z,7.57
2023-01-17T07:16:12.966Z,7.63
2023-01-17T07:18:42.667Z,7.75
2023-01-17T07:21:16.545Z,7.78
2023-01-17T07:23:50.472Z,7.81
2023-01-17T07:26:21.347Z,7.83
2023-01-17T07:28:56.534Z,7.81
2023-01-17T07:31:23.822Z,7.84
2023-01-17T07:33:55.836Z,7.86
2023-01-17T07:36:23.049Z,7.92
2023-01-17T07:38:54.631Z,7.93
2023-01-17T07:41:25.204Z,7.94
2023-01-17T07:43:56.549Z,8.02
2023-01-17T07:52:10.335Z,8.22
2023-01-17T07:54:37.521Z,8.26
2023-01-17T07:57:05.040Z,8.36
2023-01-17T07:59:33.854Z,8.45
2023-01-17T08:02:04.753Z,8.62
2023-01-17T08:04:34.822Z,8.80
2023-01-17T08:07:05.169Z,8.97
2023-01-17T08:12:30.463Z,9.34
2023-01-17T08:14:58.075Z,9.50
2023-01-17T08:17:25.447Z,9.47
2023-01-17T08:19:55.658Z,9.52
2023-01-17T08:22:22.657Z,9.55
2023-01-17T08:24:49.967Z,9.56
2023-01-17T08:27:17.058Z,9.43
2023-01-17T08:29:48.399Z,9.42
2023-01-17T08:32:16.105Z,9.49
2023-01-17T08:34:57.885Z,9.59
2023-01-17T08:37:25.453Z,9.70
2023-01-17T08:39:56.845Z,9.83
2023-01-17T08:42:25.761Z,9.92
2023-01-17T08:45:05.122Z,10.07
2023-01-17T08:47:39.327Z,10.17
2023-01-17T08:50:15.347Z,10.28
2023-01-17T08:52:42.685Z,10.27
2023-01-17T08:55:11.273Z,10.14
2023-01-17T08:57:38.729Z,10.06
2023-01-17T09:00:07.511Z,10.05
2023-01-17T09:02:35.874Z,9.95
2023-01-17T09:05:02.969Z,9.99
2023-01-17T09:07:30.490Z,9.93
2023-01-17T09:09:59.019Z,9.81
2023-01-17T09:12:27.717Z,9.80
2023-01-17T09:15:13.907Z,9.79
2023-01-17T09:17:41.366Z,9.84
2023-01-17T09:20:09.444Z,9.88
2023-01-17T09:22:39.118Z,9.85
2023-01-17T09:25:07.318Z,9.91
2023-01-17T09:27:34.730Z,9.91
2023-01-17T09:30:02.065Z,9.92
2023-01-17T09:32:36.808Z,9.93
2023-01-17T09:35:05.371Z,9.90
2023-01-17T09:37:32.969Z,9.93
2023-01-17T09:40:00.165Z,9.86
2023-01-17T09:45:39.240Z,9.79
2023-01-17T09:48:22.216Z,9.87
2023-01-17T09:51:07.572Z,10.12
2023-01-17T09:53:39.360Z,10.52
2023-01-17T10:02:50.987Z,10.73
2023-01-17T10:05:52.556Z,11.81
2023-01-17T10:08:47.975Z,12.54
2023-01-17T10:11:30.169Z,14.39
2023-01-17T10:14:17.767Z,14.67
2023-01-17T10:17:42.363Z,13.98
2023-01-17T10:20:25.982Z,12.87
2023-01-17T10:23:38.412Z,12.29
2023-01-17T10:26:14.004Z,12.06
2023-01-17T10:28:53.571Z,11.77
2023-01-17T10:34:26.833Z,11.53
2023-01-17T10:37:31.725Z,12.21
2023-01-17T10:40:12.200Z,12.44
2023-01-17T10:43:00.941Z,12.27
2023-01-17T10:49:19.599Z,11.65
2023-01-17T10:52:13.169Z,11.75
2023-01-17T10:55:05.311Z,12.23
2023-01-17T10:57:42.905Z,12.21
2023-01-17T11:03:42.487Z,11.86
2023-01-17T11:06:31.077Z,11.76
2023-01-17T11:09:00.652Z,11.72
2023-01-17T11:11:32.041Z,11.70
2023-01-17T11:14:01.915Z,11.80
2023-01-17T11:16:31.960Z,11.97
2023-01-17T11:19:23.678Z,11.98
2023-01-17T11:21:57.856Z,12.03
2023-01-17T11:24:33.404Z,12.08
2023-01-17T11:27:01.117Z,12.12
2023-01-17T11:29:35.817Z,12.19
2023-01-17T11:32:32.624Z,12.15
2023-01-17T11:35:22.826Z,12.15
2023-01-17T11:37:57.018Z,12.08
2023-01-17T11:40:29.254Z,12.22
2023-01-17T11:43:05.156Z,12.25
2023-01-17T11:45:36.549Z,12.14
2023-01-17T11:51:01.612Z,12.04
2023-01-17T11:53:30.683Z,12.59
2023-01-17T11:56:12.231Z,14.06
2023-01-17T11:58:42.677Z,14.02
2023-01-17T12:01:21.971Z,13.78
2023-01-17T12:03:58.633Z,13.24
2023-01-17T12:06:42.134Z,12.90
2023-01-17T12:09:23.052Z,12.60
2023-01-17T12:12:30.203Z,12.46
2023-01-17T12:15:32.222Z,12.38
2023-01-17T12:18:27.162Z,14.07
2023-01-17T12:21:13.131Z,16.01
2023-01-17T12:24:02.188Z,16.90
2023-01-17T12:26:44.975Z,16.67
2023-01-17T12:29:26.084Z,15.81
2023-01-17T12:31:56.315Z,14.60
2023-01-17T12:34:51.013Z,13.63
2023-01-17T12:37:22.758Z,13.04
2023-01-17T12:46:50.285Z,13.94
2023-01-17T12:50:02.067Z,14.83
2023-01-17T12:53:05.947Z,15.14
2023-01-17T12:55:55.664Z,14.56
2023-01-17T12:58:26.065Z,13.95
2023-01-17T13:01:01.783Z,13.54
2023-01-17T13:04:22.977Z,12.93
2023-01-17T13:07:12.596Z,12.50
2023-01-17T13:09:44.927Z,12.22
2023-01-17T13:12:22.958Z,12.17
2023-01-17T13:14:50.110Z,12.05
2023-01-17T13:17:26.942Z,12.03
2023-01-17T13:20:32.053Z,11.90
2023-01-17T13:23:30.416Z,11.92
2023-01-17T13:29:09.959Z,11.81
2023-01-17T13:31:48.446Z,11.74
2023-01-17T13:34:31.069Z,11.57
2023-01-17T13:37:01.696Z,11.54
2023-01-17T13:39:38.371Z,11.48
2023-01-17T13:42:27.261Z,11.42
2023-01-17T13:44:56.550Z,11.31
2023-01-17T13:47:24.668Z,11.35
2023-01-17T13:49:56.652Z,11.31
2023-01-17T13:52:33.271Z,11.26
2023-01-17T13:55:07.424Z,11.21
2023-01-17T13:57:43.602Z,11.21
2023-01-17T14:00:21.753Z,11.18
2023-01-17T14:02:51.638Z,11.15
2023-01-17T14:05:40.531Z,11.13
2023-01-17T14:08:17.070Z,11.11
2023-01-17T14:10:50.398Z,11.15
2023-01-17T14:13:39.971Z,11.21
2023-01-17T14:19:26.114Z,11.06
2023-01-17T14:22:20.831Z,11.02
2023-01-17T14:25:12.325Z,10.90
2023-01-17T14:27:42.828Z,10.81
2023-01-17T14:30:35.005Z,10.67
2023-01-17T14:33:39.875Z,10.46
2023-01-17T14:36:15.479Z,10.40
2023-01-17T14:38:44.629Z,10.28
2023-01-17T14:44:40.663Z,10.19
2023-01-17T14:47:14.008Z,9.99
2023-01-17T14:49:41.898Z,9.82
2023-01-17T14:52:19.700Z,9.84
2023-01-17T14:54:49.679Z,9.80
2023-01-17T14:57:28.340Z,9.73
2023-01-17T15:00:21.786Z,9.65
2023-01-17T15:02:50.766Z,9.57
2023-01-17T15:05:22.134Z,9.48
2023-01-17T15:07:53.118Z,9.49
2023-01-17T15:10:25.369Z,9.49
2023-01-17T15:12:52.848Z,9.42
2023-01-17T15:15:27.848Z,9.30
2023-01-17T15:18:21.067Z,9.25
2023-01-17T15:20:58.304Z,9.15
2023-01-17T15:23:31.828Z,9.13
2023-01-17T15:26:01.072Z,9.11
2023-01-17T15:28:31.469Z,9.06
2023-01-17T15:31:09.306Z,9.01
2023-01-17T15:33:39.248Z,8.95
2023-01-17T15:36:11.998Z,8.90
2023-01-17T15:38:47.663Z,8.90
2023-01-17T15:41:17.347Z,8.80
2023-01-17T15:43:45.648Z,8.77
2023-01-17T15:46:45.564Z,8.72
2023-01-17T15:49:17.823Z,8.86
2023-01-17T15:52:18.064Z,8.81
2023-01-17T15:54:52.874Z,8.73
2023-01-17T15:57:38.836Z,8.68
2023-01-17T16:00:20.483Z,8.67
2023-01-17T16:02:55.931Z,8.55
2023-01-17T16:05:27.848Z,8.66
2023-01-17T16:08:24.127Z,8.63
2023-01-17T16:10:55.206Z,8.72
2023-01-17T16:13:22.602Z,8.75
2023-01-17T16:15:50.125Z,8.73
2023-01-17T16:18:20.672Z,8.74
2023-01-17T16:20:50.911Z,8.72
2023-01-17T16:23:19.326Z,8.63
2023-01-17T16:25:47.665Z,8.61
2023-01-17T16:28:15.213Z,8.56
2023-01-17T16:30:45.461Z,8.58
2023-01-17T16:33:24.381Z,8.55
2023-01-17T16:36:07.612Z,8.50
2023-01-17T16:38:35.654Z,8.51
2023-01-17T16:41:04.177Z,8.54
2023-01-17T16:43:31.602Z,8.52
2023-01-17T16:46:00.795Z,8.51
2023-01-17T16:48:28.089Z,8.49
2023-01-17T16:50:55.216Z,8.47
2023-01-17T16:53:28.196Z,8.47
2023-01-17T16:55:58.568Z,8.53
2023-01-17T16:58:30.859Z,8.47
2023-01-17T17:00:58.492Z,8.41
2023-01-17T17:03:26.648Z,8.44
2023-01-17T17:06:01.383Z,8.41
2023-01-17T17:08:37.994Z,8.37
2023-01-17T17:11:16.621Z,8.38
2023-01-17T17:13:50.142Z,8.43
2023-01-17T17:16:30.057Z,8.40
2023-01-17T17:19:00.466Z,8.35
2023-01-17T17:21:28.915Z,8.35
2023-01-17T17:23:58.772Z,8.31
2023-01-17T17:26:33.609Z,8.24
2023-01-17T17:29:05.426Z,8.30
2023-01-17T17:31:56.942Z,8.32
2023-01-17T17:34:28.066Z,8.34
2023-01-17T17:36:57.469Z,8.36
2023-01-17T17:39:30.983Z,8.35
2023-01-17T17:42:03.358Z,8.41
2023-01-17T17:44:34.151Z,8.29
2023-01-17T17:47:01.232Z,8.26
2023-01-17T17:49:32.087Z,8.25
2023-01-17T17:52:09.479Z,8.16
2023-01-17T17:54:37.804Z,8.12
2023-01-17T17:57:04.973Z,8.02
2023-01-17T17:59:35.189Z,8.00
2023-01-17T18:02:02.415Z,7.94
2023-01-17T18:04:30.139Z,7.92
2023-01-17T18:06:58.690Z,7.76
2023-01-17T18:09:28.100Z,7.68
2023-01-17T18:11:57.205Z,7.60
2023-01-17T18:14:24.820Z,7.53
2023-01-17T18:16:52.271Z,7.43
2023-01-17T18:19:26.837Z,7.46
2023-01-17T18:21:56.438Z,7.38
2023-01-17T18:24:25.333Z,7.40
2023-01-17T18:26:56.115Z,7.36
2023-01-17T18:29:25.574Z,7.24
2023-01-17T18:31:53.866Z,7.18
2023-01-17T18:34:24.509Z,7.20
2023-01-17T18:36:52.126Z,7.05
2023-01-17T18:39:27.668Z,7.14
2023-01-17T18:41:57.375Z,7.04
2023-01-17T18:44:28.488Z,7.00
2023-01-17T18:47:04.306Z,6.88
2023-01-17T18:49:35.129Z,6.86
2023-01-17T18:52:04.780Z,6.87
2023-01-17T18:54:33.855Z,6.76
2023-01-17T18:57:07.429Z,6.88
2023-01-17T18:59:35.307Z,7.01
2023-01-17T19:02:04.839Z,7.08
2023-01-17T19:04:41.204Z,7.18
2023-01-17T19:07:13.426Z,7.21
2023-01-17T19:09:41.331Z,7.31
2023-01-17T19:12:08.487Z,7.32
2023-01-17T19:14:36.083Z,7.32
2023-01-17T19:17:03.258Z,7.41
2023-01-17T19:19:30.753Z,7.36
2023-01-17T19:22:01.039Z,7.46
2023-01-17T19:24:28.532Z,7.52
2023-01-17T19:26:55.628Z,7.49
2023-01-17T19:29:23.116Z,7.38
2023-01-17T19:31:50.207Z,7.36
2023-01-17T19:34:20.067Z,7.42
2023-01-17T19:36:47.361Z,7.36
2023-01-17T19:39:26.962Z,7.41
2023-01-17T19:41:56.986Z,7.33
2023-01-17T19:44:25.319Z,7.42
2023-01-17T19:46:52.310Z,7.50
2023-01-17T19:49:26.037Z,7.56
2023-01-17T19:51:53.111Z,7.58
2023-01-17T19:54:20.626Z,7.62
2023-01-17T19:56:49.498Z,7.53
2023-01-17T19:59:17.118Z,7.54
2023-01-17T20:01:44.284Z,7.50
2023-01-17T20:04:12.907Z,7.56
2023-01-17T20:06:40.127Z,7.57
2023-01-17T20:09:07.695Z,7.62
2023-01-17T20:11:34.966Z,7.58
2023-01-17T20:14:03.514Z,7.65
2023-01-17T20:16:35.296Z,7.70
2023-01-17T20:19:06.231Z,7.73
2023-01-17T20:21:34.527Z,7.64
2023-01-17T20:24:04.812Z,7.73
2023-01-17T20:26:44.904Z,7.82
2023-01-17T20:29:17.381Z,7.82
2023-01-17T20:31:45.184Z,7.80
2023-01-17T20:34:14.318Z,7.89
2023-01-17T20:36:42.255Z,7.84
2023-01-17T20:39:12.638Z,7.75
2023-01-17T20:41:42.243Z,7.70
2023-01-17T20:46:55.847Z,7.60
2023-01-17T20:49:23.304Z,7.52
2023-01-17T20:51:50.502Z,7.46
2023-01-17T20:54:19.725Z,7.46
2023-01-17T20:56:47.903Z,7.34
2023-01-17T20:59:20.792Z,7.29
2023-01-17T21:01:49.418Z,7.23
2023-01-17T21:04:23.589Z,7.15
2023-01-17T21:06:52.938Z,7.10
2023-01-17T21:09:30.407Z,7.11
2023-01-17T21:12:02.396Z,7.06
2023-01-17T21:14:41.877Z,7.03
2023-01-17T21:17:09.715Z,7.02
2023-01-17T21:19:37.507Z,7.01
2023-01-17T21:22:05.719Z,6.93
2023-01-17T21:27:17.226Z,6.83
2023-01-17T21:29:45.061Z,6.81
2023-01-17T21:32:14.821Z,6.80
2023-01-17T21:34:44.659Z,6.78
2023-01-17T21:37:19.061Z,6.76
2023-01-17T21:39:51.673Z,6.67
2023-01-17T21:42:19.810Z,6.66
2023-01-17T21:44:49.340Z,6.56
2023-01-17T21:47:16.383Z,6.58
2023-01-17T21:49:46.049Z,6.49
2023-01-17T21:52:13.155Z,6.48
2023-01-17T21:54:59.083Z,6.46
2023-01-17T21:57:47.679Z,6.38
2023-01-17T22:00:20.206Z,6.37
2023-01-17T22:02:49.019Z,6.23
2023-01-17T22:05:26.537Z,6.26
2023-01-17T22:08:13.207Z,6.04
2023-01-17T22:10:47.096Z,6.06
2023-01-17T22:13:15.756Z,6.04
2023-01-17T22:15:44.075Z,6.03
2023-01-17T22:18:12.748Z,5.98
2023-01-17T22:20:44.627Z,5.98
2023-01-17T22:23:14.909Z,5.97
2023-01-17T22:25:42.445Z,6.01
2023-01-17T22:28:13.204Z,5.97
2023-01-17T22:30:48.282Z,5.95
2023-01-17T22:33:18.635Z,5.86
2023-01-17T22:35:46.073Z,5.79
2023-01-17T22:38:13.103Z,5.83
2023-01-17T22:40:40.959Z,5.85
2023-01-17T22:43:09.228Z,5.85
2023-01-17T22:45:39.019Z,5.87
2023-01-17T22:48:06.497Z,5.82
2023-01-17T22:50:53.109Z,5.76
2023-01-17T22:53:23.006Z,5.76
2023-01-17T22:56:02.486Z,5.68
2023-01-17T22:58:30.347Z,5.74
2023-01-17T23:01:05.940Z,5.62
2023-01-17T23:03:35.600Z,5.62
2023-01-17T23:06:19.155Z,5.55
2023-01-17T23:08:49.053Z,5.55
2023-01-17T23:11:40.867Z,5.54
2023-01-17T23:14:09.736Z,5.55
2023-01-17T23:16:56.355Z,5.49
2023-01-17T23:19:36.411Z,5.59
2023-01-17T23:22:21.190Z,5.60
2023-01-17T23:24:51.322Z,5.61
2023-01-17T23:27:46.003Z,5.61
2023-01-17T23:30:20.001Z,5.49
2023-01-17T23:32:50.065Z,5.52
2023-01-17T23:35:20.015Z,5.49
2023-01-17T23:38:06.491Z,5.40
2023-01-17T23:40:35.503Z,5.48
2023-01-17T23:43:21.688Z,5.45
2023-01-17T23:45:50.478Z,5.45
2023-01-17T23:48:20.681Z,5.43
2023-01-17T23:50:48.747Z,5.37
2023-01-17T23:53:24.074Z,5.46
2023-01-17T23:55:54.035Z,5.47
2023-01-17T23:58:26.821Z,5.40
